»·PEaware :: SWA901 KBUR-KSFO

SWA901 :: KBUR-KSFO

FLIGHT INFORMATION

Flight Status: Arrived
Operator:
Southwest Airlines
More flights by this operator :: More flights under this callsign
Pilot: Cody B. (17747)
Aircraft: BOEING 737-800
(B738)
More flights by this aircraft type
Origin: KBUR Bob Hope-Burbank
United States
Destination: KSFO San Francisco Intl
United States
More flights between these airports :: More routes between these airports
Route: OROSZ2 COREZ MAKRS SERFR SERFR3
File this flight plan on PilotEdge
Remarks: PBN / A1B1C1D1S1S2 DOF / 181003 REG / N8301J EET / KZOA0024 CODE / AB5ADE OPR / SWA PER / C RMK / TCAS SIMBRIEF
Altitude:
(Current/Filed)
30,000ft
Speed:
(Current/Filed)
444kts
Departed: 03-Oct-18 09:58 AM
Arrived: 03-Oct-18 10:52 AM
Distance/Time
Traveled:
283nm/0:54
Distance/Time
To Go:
Arrived

Flight Plot

Page will automatically refresh every two minutes.

Flight plan parsing failed; only flown route is shown


Map Options




Map Legend


Flown Route
Filed Route
Departure Airport
Arrival Airport
Navaid (VOR, NDB)
Fix

Horizontal Profiles

Position Reports

Time Latitude Longitude Heading Altitude Ground
Speed
03-Oct-18 09:43 34.196761 -118.350155 180 785ft 0kts
03-Oct-18 09:44 34.196761 -118.350155 180 785ft 0kts
03-Oct-18 09:45 34.196761 -118.350155 180 785ft 0kts
03-Oct-18 09:46 34.196761 -118.350157 180 785ft 0kts
03-Oct-18 09:47 34.197029 -118.350085 219 785ft 2kts
03-Oct-18 09:48 34.197150 -118.349705 271 785ft 0kts
03-Oct-18 09:49 34.197150 -118.349705 271 785ft 0kts
03-Oct-18 09:50 34.197150 -118.349705 271 785ft 0kts
03-Oct-18 09:51 34.197151 -118.349708 271 785ft 0kts
03-Oct-18 09:52 34.198098 -118.350086 4 785ft 9kts
03-Oct-18 09:53 34.198772 -118.352946 270 785ft 12kts
03-Oct-18 09:54 34.200476 -118.355824 347 785ft 13kts
03-Oct-18 09:55 34.204762 -118.357007 347 785ft 18kts
03-Oct-18 09:56 34.209809 -118.358402 347 785ft 18kts
03-Oct-18 09:57 34.211585 -118.359072 311 785ft 0kts
03-Oct-18 09:58 34.211598 -118.359090 311 785ft 0kts
03-Oct-18 09:59 34.211180 -118.360136 167 785ft 9kts
03-Oct-18 10:00 34.196220 -118.356001 165 785ft 142kts
03-Oct-18 10:01 34.161481 -118.368256 219 2570ft 158kts
03-Oct-18 10:02 34.130725 -118.410153 256 4058ft 216kts
03-Oct-18 10:03 34.175577 -118.451861 351 5755ft 279kts
03-Oct-18 10:04 34.252868 -118.467150 340 8678ft 302kts
03-Oct-18 10:05 34.314545 -118.534187 311 10967ft 334kts
03-Oct-18 10:06 34.378113 -118.613464 310 13618ft 351kts
03-Oct-18 10:07 34.444297 -118.687627 324 15939ft 372kts
03-Oct-18 10:08 34.534842 -118.750736 324 18207ft 390kts
03-Oct-18 10:09 34.628938 -118.817275 324 20316ft 406kts
03-Oct-18 10:10 34.726752 -118.886752 323 22318ft 419kts
03-Oct-18 10:11 34.826428 -118.957716 323 24198ft 429kts
03-Oct-18 10:12 34.929909 -119.031643 324 26032ft 437kts
03-Oct-18 10:13 35.034739 -119.106744 325 27765ft 442kts
03-Oct-18 10:14 35.137693 -119.180705 325 29151ft 450kts
03-Oct-18 10:15 35.245428 -119.258350 325 30000ft 463kts
03-Oct-18 10:16 35.358885 -119.340444 325 29990ft 489kts
03-Oct-18 10:17 35.476084 -119.425609 323 29986ft 491kts
03-Oct-18 10:18 35.560003 -119.549369 288 29984ft 467kts
03-Oct-18 10:19 35.587739 -119.695357 272 29981ft 453kts
03-Oct-18 10:20 35.609597 -119.847537 274 29989ft 455kts
03-Oct-18 10:21 35.631730 -119.998924 274 29995ft 454kts
03-Oct-18 10:22 35.654092 -120.150511 274 30006ft 455kts
03-Oct-18 10:23 35.676735 -120.302888 274 30005ft 455kts
03-Oct-18 10:24 35.722621 -120.449653 290 30011ft 467kts
03-Oct-18 10:25 35.778033 -120.593569 289 30009ft 468kts
03-Oct-18 10:26 35.831178 -120.733255 289 30013ft 467kts
03-Oct-18 10:27 35.885852 -120.877722 289 30010ft 466kts
03-Oct-18 10:28 35.940214 -121.022219 290 30015ft 473kts
03-Oct-18 10:29 35.995256 -121.169176 294 30014ft 470kts
03-Oct-18 10:30 36.050750 -121.312394 302 29888ft 455kts
03-Oct-18 10:31 36.131480 -121.414347 326 28923ft 426kts
03-Oct-18 10:32 36.221173 -121.484224 328 28039ft 429kts
03-Oct-18 10:33 36.317404 -121.559422 327 27038ft 419kts
03-Oct-18 10:34 36.414435 -121.635582 327 25336ft 411kts
03-Oct-18 10:35 36.506302 -121.707917 327 22943ft 402kts
03-Oct-18 10:36 36.596382 -121.779130 327 20606ft 393kts
03-Oct-18 10:37 36.685763 -121.849954 327 18354ft 383kts
03-Oct-18 10:38 36.777499 -121.904573 347 16156ft 375kts
03-Oct-18 10:39 36.876367 -121.932051 347 14060ft 366kts
03-Oct-18 10:40 36.972669 -121.960420 342 12011ft 360kts
03-Oct-18 10:41 37.060421 -121.995239 343 10955ft 311kts
03-Oct-18 10:42 37.132798 -122.023588 344 10147ft 293kts
03-Oct-18 10:43 37.205807 -122.052184 344 9073ft 287kts
03-Oct-18 10:44 37.274346 -122.079148 345 7929ft 274kts
03-Oct-18 10:45 37.334315 -122.102860 345 6769ft 231kts
03-Oct-18 10:46 37.389622 -122.124253 347 5732ft 210kts
03-Oct-18 10:47 37.442162 -122.142022 347 4788ft 202kts
03-Oct-18 10:48 37.493533 -122.160393 343 3838ft 192kts
03-Oct-18 10:49 37.537830 -122.186302 302 2797ft 172kts
03-Oct-18 10:50 37.560437 -122.236688 299 2003ft 162kts
03-Oct-18 10:51 37.580086 -122.283273 299 1357ft 146kts
03-Oct-18 10:52 37.598393 -122.327031 298 621ft 144kts
03-Oct-18 10:53 37.616331 -122.369383 300 21ft 112kts
03-Oct-18 10:54 37.619629 -122.379338 229 21ft 7kts
03-Oct-18 10:55 37.619526 -122.379487 228 21ft 0kts
03-Oct-18 10:56 37.617621 -122.379454 169 21ft 13kts
03-Oct-18 10:57 37.614077 -122.381316 208 21ft 15kts
03-Oct-18 10:58 37.612662 -122.382745 293 21ft 3kts
03-Oct-18 10:59 37.612822 -122.383166 299 21ft 0kts
03-Oct-18 11:00 37.612822 -122.383166 299 21ft 0kts
03-Oct-18 11:01 37.612822 -122.383166 299 21ft 0kts
03-Oct-18 11:02 37.612822 -122.383166 299 21ft 0kts
03-Oct-18 11:03 37.612822 -122.383166 299 21ft 0kts
03-Oct-18 11:04 37.612822 -122.383166 299 21ft 0kts
03-Oct-18 11:05 37.612822 -122.383166 299 21ft 0kts

Navigation Log

Ident Type
Flight plan parsing failed, navigation log unavailable